Terminal Aerodrome Forecast
Issued by NWS Charleston, WV

Current Version | Previous Version | Graphics & Text | Print | Product List | Glossary On
Versions: 1 2 3 4 5 6 7 8 9 10 11 12 13 14 15 16 17 18 19 20 21 22 23
600
FTUS41 KRLX 221138
TAFPKB
TAF
KPKB 221138Z 2212/2312 32004KT 4SM BR SCT060
     FM221400 31008KT P6SM BKN060
     FM221900 32008KT 6SM SHRA BKN060
     FM222300 34004KT P6SM BKN060
     FM230200 VRB03KT P6SM SCT070
     FM230900 VRB03KT 4SM BR FEW001=

USA.gov is the U.S. government's official web portal to all federal, state and local government web resources and services.